createdAt,value
2018-05-21T00:01:50.574Z,78.90
2018-05-21T00:04:16.714Z,78.80
2018-05-21T00:06:42.839Z,78.10
2018-05-21T00:09:08.970Z,77.60
2018-05-21T00:11:35.104Z,77.50
2018-05-21T00:14:01.222Z,77.20
2018-05-21T00:16:27.300Z,77.10
2018-05-21T00:18:54.161Z,78.50
2018-05-21T00:21:20.578Z,77.90
2018-05-21T00:23:47.479Z,80.10
2018-05-21T00:26:13.792Z,80.10
2018-05-21T00:28:40.241Z,80.60
2018-05-21T00:31:06.579Z,79.00
2018-05-21T00:33:32.950Z,77.50
2018-05-21T00:35:59.232Z,77.50
2018-05-21T00:38:25.620Z,77.60
2018-05-21T00:40:51.998Z,77.50
2018-05-21T00:43:18.371Z,76.60
2018-05-21T00:45:45.420Z,75.60
2018-05-21T00:48:13.324Z,75.60
2018-05-21T00:50:40.591Z,75.60
2018-05-21T00:53:07.270Z,75.80
2018-05-21T00:55:36.516Z,76.00
2018-05-21T00:58:02.845Z,76.00
2018-05-21T01:00:29.525Z,75.60
2018-05-21T01:02:55.992Z,76.00
2018-05-21T01:05:23.081Z,76.10
2018-05-21T01:07:51.012Z,76.30
2018-05-21T01:10:17.279Z,77.00
2018-05-21T01:12:43.584Z,77.10
2018-05-21T01:15:10.066Z,77.00
2018-05-21T01:17:36.386Z,76.90
2018-05-21T01:20:02.696Z,77.20
2018-05-21T01:22:29.062Z,78.30
2018-05-21T01:24:55.430Z,80.10
2018-05-21T01:27:21.760Z,82.10
2018-05-21T01:29:48.201Z,82.80
2018-05-21T01:32:14.566Z,83.70
2018-05-21T01:34:40.845Z,84.10
2018-05-21T01:37:07.164Z,83.40
2018-05-21T01:39:33.524Z,82.70
2018-05-21T01:41:59.788Z,82.10
2018-05-21T01:44:26.147Z,82.00
2018-05-21T01:46:52.413Z,81.30
2018-05-21T01:49:18.820Z,80.70
2018-05-21T01:51:45.113Z,80.00
2018-05-21T01:54:11.705Z,79.80
2018-05-21T01:56:37.984Z,79.20
2018-05-21T01:59:04.147Z,79.30
2018-05-21T02:01:30.421Z,80.10
2018-05-21T02:03:56.509Z,80.50
2018-05-21T02:06:22.808Z,80.50
2018-05-21T02:08:48.945Z,79.90
2018-05-21T02:11:15.070Z,79.20
2018-05-21T02:13:41.943Z,78.70
2018-05-21T02:16:08.402Z,78.70
2018-05-21T02:18:34.529Z,78.50
2018-05-21T02:21:00.838Z,79.60
2018-05-21T02:23:26.988Z,78.70
2018-05-21T02:25:53.120Z,78.30
2018-05-21T02:28:19.434Z,78.20
2018-05-21T02:30:45.628Z,78.40
2018-05-21T02:33:11.732Z,78.30
2018-05-21T02:35:37.889Z,78.30
2018-05-21T02:38:04.078Z,78.80
2018-05-21T02:40:30.262Z,79.40
2018-05-21T02:42:56.513Z,79.80
2018-05-21T02:45:22.753Z,80.00
2018-05-21T02:47:49.141Z,79.80
2018-05-21T02:50:15.266Z,80.00
2018-05-21T02:52:41.373Z,79.80
2018-05-21T02:55:07.522Z,79.60
2018-05-21T02:57:33.635Z,79.70
2018-05-21T02:59:59.743Z,79.70
2018-05-21T03:02:27.002Z,79.90
2018-05-21T03:04:53.194Z,81.10
2018-05-21T03:07:19.354Z,81.00
2018-05-21T03:09:45.724Z,81.50
2018-05-21T03:12:12.037Z,81.50
2018-05-21T03:14:38.135Z,81.50
2018-05-21T03:17:04.260Z,81.60
2018-05-21T03:19:30.365Z,81.70
2018-05-21T03:21:56.563Z,82.40
2018-05-21T03:24:22.697Z,82.60
2018-05-21T03:26:48.942Z,82.10
2018-05-21T03:29:15.106Z,81.80
2018-05-21T03:31:41.251Z,81.10
2018-05-21T03:34:07.445Z,81.00
2018-05-21T03:36:33.553Z,81.30
2018-05-21T03:38:59.619Z,81.60
2018-05-21T03:41:25.700Z,82.00
2018-05-21T03:43:52.465Z,82.40
2018-05-21T03:46:18.588Z,82.40
2018-05-21T03:48:44.688Z,82.40
2018-05-21T03:51:10.838Z,82.60
2018-05-21T03:53:36.960Z,81.70
2018-05-21T03:56:03.072Z,81.60
2018-05-21T03:58:41.502Z,82.10
2018-05-21T04:01:19.888Z,81.80
2018-05-21T04:03:53.772Z,81.90
2018-05-21T04:06:20.078Z,81.90
2018-05-21T04:08:46.164Z,82.10
2018-05-21T04:11:12.327Z,81.60
2018-05-21T04:13:38.481Z,80.70
2018-05-21T04:16:04.582Z,80.00
2018-05-21T04:18:30.675Z,78.80
2018-05-21T04:20:56.835Z,76.20
2018-05-21T04:23:23.037Z,75.30
2018-05-21T04:25:49.171Z,75.50
2018-05-21T04:28:15.305Z,75.40
2018-05-21T04:30:41.565Z,75.50
2018-05-21T04:33:07.732Z,75.20
2018-05-21T04:35:33.852Z,75.60
2018-05-21T04:37:59.972Z,78.00
2018-05-21T04:40:26.152Z,79.20
2018-05-21T04:42:52.379Z,78.30
2018-05-21T04:45:18.491Z,74.30
2018-05-21T04:47:44.648Z,69.60
2018-05-21T04:50:11.544Z,66.30
2018-05-21T04:52:37.768Z,66.30
2018-05-21T04:55:04.212Z,68.40
2018-05-21T04:57:30.351Z,68.50
2018-05-21T04:59:56.480Z,68.20
2018-05-21T05:02:22.574Z,69.10
2018-05-21T05:04:48.786Z,68.90
2018-05-21T05:07:14.922Z,68.80
2018-05-21T05:09:41.012Z,68.90
2018-05-21T05:12:07.115Z,68.80
2018-05-21T05:14:33.254Z,68.40
2018-05-21T05:17:00.109Z,67.60
2018-05-21T05:19:26.225Z,67.50
2018-05-21T05:21:53.154Z,67.30
2018-05-21T05:24:19.548Z,67.10
2018-05-21T05:26:45.659Z,66.20
2018-05-21T05:29:11.780Z,66.20
2018-05-21T05:31:39.365Z,66.10
2018-05-21T05:34:05.491Z,65.80
2018-05-21T05:36:31.777Z,65.70
2018-05-21T05:38:57.937Z,65.40
2018-05-21T05:41:24.404Z,65.30
2018-05-21T05:43:50.548Z,65.60
2018-05-21T05:46:16.788Z,65.00
2018-05-21T05:48:43.015Z,65.20
2018-05-21T05:51:09.130Z,65.40
2018-05-21T05:53:35.205Z,65.10
2018-05-21T05:56:01.331Z,64.60
2018-05-21T05:58:27.637Z,64.40
2018-05-21T06:00:53.779Z,63.90
2018-05-21T06:03:20.156Z,64.80
2018-05-21T06:05:46.284Z,64.90
2018-05-21T06:08:12.425Z,66.80
2018-05-21T06:10:39.362Z,66.90
2018-05-21T06:13:05.501Z,66.90
2018-05-21T06:15:31.589Z,67.00
2018-05-21T06:17:57.751Z,65.30
2018-05-21T06:20:23.947Z,63.60
2018-05-21T06:22:50.136Z,62.70
2018-05-21T06:25:16.218Z,62.60
2018-05-21T06:27:42.486Z,61.50
2018-05-21T06:30:08.653Z,61.40
2018-05-21T06:32:34.743Z,61.30
2018-05-21T06:35:00.972Z,60.90
2018-05-21T06:37:27.176Z,59.90
2018-05-21T06:39:53.369Z,59.90
2018-05-21T06:42:19.765Z,60.50
2018-05-21T06:44:45.891Z,61.00
2018-05-21T06:47:12.146Z,60.30
2018-05-21T06:49:38.284Z,60.70
2018-05-21T06:52:04.506Z,59.60
2018-05-21T06:54:31.465Z,58.90
2018-05-21T06:56:57.622Z,59.40
2018-05-21T06:59:23.841Z,58.40
2018-05-21T07:01:49.988Z,59.60
2018-05-21T07:04:16.214Z,61.60
2018-05-21T07:06:42.450Z,62.20
2018-05-21T07:09:08.621Z,61.40
2018-05-21T07:11:34.877Z,61.10
2018-05-21T07:14:01.070Z,60.70
2018-05-21T07:16:27.917Z,60.30
2018-05-21T07:18:55.104Z,61.00
2018-05-21T07:21:21.249Z,60.10
2018-05-21T07:23:47.699Z,60.90
2018-05-21T07:26:13.902Z,62.50
2018-05-21T07:28:41.061Z,64.50
2018-05-21T07:31:07.321Z,64.00
2018-05-21T07:33:34.172Z,65.30
2018-05-21T07:36:00.321Z,65.30
2018-05-21T07:38:26.445Z,64.40
2018-05-21T07:40:52.863Z,64.30
2018-05-21T07:43:19.141Z,65.10
2018-05-21T07:45:48.953Z,65.30
2018-05-21T07:48:15.129Z,65.60
2018-05-21T07:50:41.318Z,66.30
2018-05-21T07:53:07.478Z,65.70
2018-05-21T07:55:34.379Z,64.00
2018-05-21T07:58:00.514Z,64.00
2018-05-21T08:00:26.627Z,62.70
2018-05-21T08:02:52.763Z,63.10
2018-05-21T08:05:19.231Z,62.20
2018-05-21T08:07:45.319Z,61.20
2018-05-21T08:10:11.456Z,60.10
2018-05-21T08:12:37.605Z,59.40
2018-05-21T08:15:04.510Z,60.90
2018-05-21T08:17:30.868Z,60.80
2018-05-21T08:19:56.958Z,61.30
2018-05-21T08:22:23.097Z,62.00
2018-05-21T08:24:49.218Z,64.70
2018-05-21T08:27:15.390Z,65.10
2018-05-21T08:29:41.532Z,64.60
2018-05-21T08:32:07.718Z,63.60
2018-05-21T08:34:34.594Z,62.60
2018-05-21T08:37:00.742Z,62.50
2018-05-21T08:39:26.954Z,62.00
2018-05-21T08:41:53.085Z,60.90
2018-05-21T08:44:19.463Z,60.40
2018-05-21T08:46:45.555Z,60.40
2018-05-21T08:49:11.763Z,59.50
2018-05-21T08:51:37.980Z,60.30
2018-05-21T08:54:04.222Z,59.40
2018-05-21T08:56:30.419Z,60.60
2018-05-21T08:58:56.592Z,60.50
2018-05-21T09:01:22.743Z,61.10
2018-05-21T09:03:48.860Z,61.70
2018-05-21T09:06:15.156Z,62.30
2018-05-21T09:08:41.281Z,61.70
2018-05-21T09:11:07.415Z,62.30
2018-05-21T09:13:33.619Z,63.30
2018-05-21T09:15:59.733Z,63.30
2018-05-21T09:18:25.884Z,63.80
2018-05-21T09:20:52.057Z,62.60
2018-05-21T09:23:18.217Z,62.50
2018-05-21T09:25:44.356Z,62.30
2018-05-21T09:28:10.481Z,62.00
2018-05-21T09:30:36.636Z,61.40
2018-05-21T09:33:02.765Z,60.50
2018-05-21T09:35:28.937Z,60.90
2018-05-21T09:37:55.855Z,61.10
2018-05-21T09:40:21.993Z,61.10
2018-05-21T09:42:48.150Z,60.40
2018-05-21T09:45:14.278Z,59.20
2018-05-21T09:47:40.439Z,58.60
2018-05-21T09:50:07.469Z,57.90
2018-05-21T09:52:33.644Z,57.90
2018-05-21T09:54:59.782Z,57.40
2018-05-21T09:57:25.891Z,57.50
2018-05-21T09:59:52.104Z,58.50
2018-05-21T10:02:18.278Z,58.30
2018-05-21T10:04:44.450Z,59.10
2018-05-21T10:07:10.574Z,59.40
2018-05-21T10:09:36.718Z,59.70
2018-05-21T10:12:03.763Z,60.00
2018-05-21T10:14:29.837Z,60.00
2018-05-21T10:16:56.169Z,60.20
2018-05-21T10:19:22.643Z,60.10
2018-05-21T10:21:48.759Z,59.50
2018-05-21T10:24:14.940Z,58.80
2018-05-21T10:26:41.083Z,59.40
2018-05-21T10:29:07.232Z,58.60
2018-05-21T10:31:33.325Z,59.40
2018-05-21T10:33:59.455Z,59.10
2018-05-21T10:36:25.580Z,58.70
2018-05-21T10:38:52.453Z,57.70
2018-05-21T10:41:18.586Z,57.60
2018-05-21T10:43:44.766Z,57.50
2018-05-21T10:46:10.920Z,57.80
2018-05-21T10:48:37.037Z,57.70
2018-05-21T10:51:03.353Z,56.80
2018-05-21T10:53:29.617Z,56.70
2018-05-21T10:55:56.061Z,57.00
2018-05-21T10:58:22.361Z,57.40
2018-05-21T11:00:48.524Z,57.50
2018-05-21T11:03:15.363Z,58.40
2018-05-21T11:05:41.506Z,58.40
2018-05-21T11:08:07.659Z,58.70
2018-05-21T11:10:33.877Z,58.60
2018-05-21T11:13:00.034Z,58.80
2018-05-21T11:15:26.210Z,59.30
2018-05-21T11:17:53.105Z,59.70
2018-05-21T11:20:19.244Z,59.60
2018-05-21T11:22:45.409Z,61.20
2018-05-21T11:25:12.270Z,62.60
2018-05-21T11:27:38.408Z,62.60
2018-05-21T11:30:04.603Z,61.50
2018-05-21T11:32:30.743Z,62.00
2018-05-21T11:34:56.874Z,63.60
2018-05-21T11:37:23.896Z,62.10
2018-05-21T11:39:50.825Z,62.00
2018-05-21T11:42:17.731Z,62.80
2018-05-21T11:44:43.938Z,62.80
2018-05-21T11:47:10.098Z,60.50
2018-05-21T11:49:36.238Z,60.80
2018-05-21T11:52:03.186Z,58.80
2018-05-21T11:54:29.416Z,58.70
2018-05-21T11:56:55.570Z,58.60
2018-05-21T11:59:21.710Z,57.60
2018-05-21T12:01:48.231Z,58.00
2018-05-21T12:04:14.331Z,56.40
2018-05-21T12:06:40.660Z,54.70
2018-05-21T12:09:07.581Z,53.40
2018-05-21T12:11:33.746Z,53.40
2018-05-21T12:13:59.877Z,51.60
2018-05-21T12:16:26.056Z,50.50
2018-05-21T12:18:52.142Z,50.90
2018-05-21T12:21:18.278Z,51.90
2018-05-21T12:23:44.411Z,51.80
2018-05-21T12:26:10.750Z,51.40
2018-05-21T12:28:36.927Z,51.00
2018-05-21T12:31:03.044Z,52.70
2018-05-21T12:33:29.146Z,52.50
2018-05-21T12:35:55.336Z,53.10
2018-05-21T12:38:21.482Z,53.10
2018-05-21T12:40:47.709Z,53.10
2018-05-21T12:43:14.078Z,53.90
2018-05-21T12:45:41.175Z,53.20
2018-05-21T12:48:07.306Z,53.20
2018-05-21T12:50:33.549Z,55.40
2018-05-21T12:52:59.728Z,56.80
2018-05-21T12:55:26.154Z,56.10
2018-05-21T12:57:52.385Z,55.00
2018-05-21T13:00:18.601Z,53.00
2018-05-21T13:02:45.638Z,52.70
2018-05-21T13:05:11.884Z,51.70
2018-05-21T13:07:38.061Z,53.40
2018-05-21T13:10:04.275Z,53.40
2018-05-21T13:12:30.481Z,53.40
2018-05-21T13:14:56.616Z,54.10
2018-05-21T13:17:23.525Z,51.90
2018-05-21T13:19:49.662Z,51.80
2018-05-21T13:22:15.822Z,51.20
2018-05-21T13:24:42.065Z,50.60
2018-05-21T13:27:08.347Z,50.70
2018-05-21T13:29:34.536Z,50.30
2018-05-21T13:32:00.691Z,49.50
2018-05-21T13:34:26.877Z,49.30
2018-05-21T13:36:53.108Z,49.70
2018-05-21T13:39:19.384Z,48.80
2018-05-21T13:41:45.855Z,49.60
2018-05-21T13:44:12.025Z,49.50
2018-05-21T13:46:38.181Z,48.70
2018-05-21T13:49:04.356Z,49.20
2018-05-21T13:51:30.519Z,48.60
2018-05-21T13:53:56.658Z,47.80
2018-05-21T13:56:22.798Z,48.40
2018-05-21T13:58:48.929Z,48.40
2018-05-21T14:01:15.082Z,47.20
2018-05-21T14:03:41.175Z,47.10
2018-05-21T14:06:07.543Z,48.00
2018-05-21T14:08:33.873Z,46.30
2018-05-21T14:10:59.994Z,45.40
2018-05-21T14:13:26.079Z,44.80
2018-05-21T14:15:52.369Z,45.00
2018-05-21T14:18:19.435Z,43.90
2018-05-21T14:20:45.597Z,43.90
2018-05-21T14:23:11.718Z,43.10
2018-05-21T14:25:37.867Z,42.90
2018-05-21T14:28:04.010Z,42.00
2018-05-21T14:30:31.097Z,41.60
2018-05-21T14:32:57.285Z,41.10
2018-05-21T14:35:23.480Z,42.10
2018-05-21T14:37:49.621Z,42.00
2018-05-21T14:40:15.858Z,41.70
2018-05-21T14:42:42.145Z,41.70
2018-05-21T14:45:10.546Z,42.60
2018-05-21T14:47:36.696Z,41.40
2018-05-21T14:50:02.883Z,40.00
2018-05-21T14:52:28.988Z,40.00
2018-05-21T14:54:55.259Z,39.70
2018-05-21T14:57:21.401Z,39.60
2018-05-21T14:59:47.496Z,38.70
2018-05-21T15:02:13.778Z,39.80
2018-05-21T15:04:39.972Z,41.50
2018-05-21T15:07:06.262Z,43.00
2018-05-21T15:09:32.443Z,43.60
2018-05-21T15:11:58.682Z,43.80
2018-05-21T15:14:25.570Z,43.20
2018-05-21T15:16:51.708Z,43.20
2018-05-21T15:19:18.149Z,42.70
2018-05-21T15:21:44.242Z,43.50
2018-05-21T15:24:10.357Z,43.10
2018-05-21T15:26:36.489Z,42.90
2018-05-21T15:29:02.661Z,42.90
2018-05-21T15:31:28.992Z,42.90
2018-05-21T15:33:56.028Z,43.10
2018-05-21T15:36:22.179Z,43.10
2018-05-21T15:38:49.269Z,42.70
2018-05-21T15:41:15.414Z,42.60
2018-05-21T15:43:41.560Z,43.10
2018-05-21T15:46:07.793Z,43.00
2018-05-21T15:48:34.152Z,41.80
2018-05-21T15:51:00.148Z,41.30
2018-05-21T15:53:26.387Z,41.90
2018-05-21T15:55:53.388Z,42.50
2018-05-21T15:58:19.598Z,42.50
2018-05-21T16:00:45.938Z,43.40
2018-05-21T16:03:12.155Z,43.60
2018-05-21T16:05:40.166Z,44.50
2018-05-21T16:08:06.507Z,44.50
2018-05-21T16:10:33.461Z,44.10
2018-05-21T16:13:00.974Z,43.90
2018-05-21T16:15:31.974Z,43.90
2018-05-21T16:17:58.881Z,44.20
2018-05-21T16:20:27.682Z,43.70
2018-05-21T16:22:54.077Z,43.70
2018-05-21T16:25:21.042Z,43.80
2018-05-21T16:27:47.992Z,44.30
2018-05-21T16:30:14.291Z,44.30
2018-05-21T16:32:41.268Z,44.10
2018-05-21T16:35:07.595Z,44.60
2018-05-21T16:37:33.744Z,44.90
2018-05-21T16:40:00.053Z,45.20
2018-05-21T16:42:26.433Z,45.20
2018-05-21T16:44:53.390Z,45.20
2018-05-21T16:47:21.644Z,45.40
2018-05-21T16:49:48.020Z,45.80
2018-05-21T16:52:15.071Z,45.90
2018-05-21T16:54:42.382Z,45.70
2018-05-21T16:57:09.843Z,45.70
2018-05-21T16:59:36.496Z,45.50
2018-05-21T17:02:02.836Z,45.70
2018-05-21T17:04:30.176Z,46.20
2018-05-21T17:06:56.803Z,46.40
2018-05-21T17:09:23.894Z,47.00
2018-05-21T17:11:50.285Z,47.00
2018-05-21T17:14:16.778Z,47.40
2018-05-21T17:16:42.952Z,47.50
2018-05-21T17:19:09.123Z,47.60
2018-05-21T17:21:35.358Z,47.50
2018-05-21T17:24:02.109Z,47.80
2018-05-21T17:26:28.339Z,48.60
2018-05-21T17:28:54.919Z,48.30
2018-05-21T17:31:21.406Z,48.30
2018-05-21T17:33:49.203Z,47.70
2018-05-21T17:36:15.524Z,47.70
2018-05-21T17:38:42.063Z,47.50
2018-05-21T17:41:08.948Z,48.00
2018-05-21T17:43:35.140Z,49.20
2018-05-21T17:46:01.784Z,52.30
2018-05-21T17:48:28.919Z,55.50
2018-05-21T17:50:57.495Z,55.70
2018-05-21T17:53:25.388Z,56.20
2018-05-21T17:55:51.712Z,57.70
2018-05-21T17:58:18.877Z,60.40
2018-05-21T18:00:45.624Z,59.30
2018-05-21T18:03:12.993Z,59.80
2018-05-21T18:05:39.433Z,61.50
2018-05-21T18:08:07.796Z,60.70
2018-05-21T18:10:38.194Z,60.70
2018-05-21T18:13:04.524Z,61.50
2018-05-21T18:15:31.129Z,60.00
2018-05-21T18:17:57.373Z,59.70
2018-05-21T18:20:23.710Z,60.80
2018-05-21T18:22:49.940Z,62.10
2018-05-21T18:25:16.218Z,62.00
2018-05-21T18:27:42.539Z,63.10
2018-05-21T18:30:09.395Z,64.60
2018-05-21T18:32:35.713Z,65.80
2018-05-21T18:35:02.000Z,66.20
2018-05-21T18:37:28.339Z,65.60
2018-05-21T18:39:54.974Z,65.10
2018-05-21T18:42:21.200Z,63.30
2018-05-21T18:44:48.235Z,65.10
2018-05-21T18:47:15.601Z,65.10
2018-05-21T18:49:41.926Z,65.40
2018-05-21T18:52:08.121Z,64.40
2018-05-21T18:54:34.731Z,67.40
2018-05-21T18:57:01.745Z,66.60
2018-05-21T18:59:28.076Z,66.60
2018-05-21T19:01:54.541Z,67.40
2018-05-21T19:04:20.729Z,65.50
2018-05-21T19:06:47.517Z,69.00
2018-05-21T19:09:13.735Z,67.60
2018-05-21T19:11:40.015Z,68.90
2018-05-21T19:14:06.192Z,70.40
2018-05-21T19:16:32.317Z,70.60
2018-05-21T19:18:58.715Z,71.40
2018-05-21T19:21:25.325Z,70.90
2018-05-21T19:23:51.662Z,69.90
2018-05-21T19:26:18.025Z,68.00
2018-05-21T19:28:44.592Z,68.80
2018-05-21T19:31:11.305Z,67.60
2018-05-21T19:33:37.543Z,66.70
2018-05-21T19:36:03.714Z,68.30
2018-05-21T19:38:30.479Z,68.10
2018-05-21T19:40:56.820Z,69.00
2018-05-21T19:43:23.410Z,67.60
2018-05-21T19:45:49.826Z,68.10
2018-05-21T19:48:16.182Z,68.40
2018-05-21T19:50:42.446Z,68.90
2018-05-21T19:53:08.724Z,69.00
2018-05-21T19:55:35.102Z,68.90
2018-05-21T19:58:01.364Z,69.20
2018-05-21T20:00:27.617Z,69.90
2018-05-21T20:02:53.906Z,70.20
2018-05-21T20:05:24.122Z,71.10
2018-05-21T20:08:06.087Z,71.20
2018-05-21T20:10:32.439Z,72.00
2018-05-21T20:12:58.974Z,71.60
2018-05-21T20:15:25.283Z,71.00
2018-05-21T20:17:51.416Z,70.80
2018-05-21T20:20:17.585Z,70.50
2018-05-21T20:22:45.179Z,70.50
2018-05-21T20:25:11.431Z,70.10
2018-05-21T20:27:37.661Z,69.90
2018-05-21T20:30:03.990Z,70.00
2018-05-21T20:32:30.286Z,69.80
2018-05-21T20:34:56.562Z,70.50
2018-05-21T20:37:22.747Z,70.30
2018-05-21T20:39:48.930Z,70.30
2018-05-21T20:42:15.307Z,70.20
2018-05-21T20:44:41.566Z,70.50
2018-05-21T20:47:07.736Z,70.30
2018-05-21T20:49:34.004Z,69.80
2018-05-21T20:52:00.259Z,69.80
2018-05-21T20:54:28.794Z,69.90
2018-05-21T20:56:55.131Z,70.30
2018-05-21T20:59:21.369Z,72.30
2018-05-21T21:01:47.668Z,72.90
2018-05-21T21:04:14.020Z,73.90
2018-05-21T21:06:40.403Z,74.40
2018-05-21T21:09:06.724Z,74.80
2018-05-21T21:11:32.886Z,74.50
2018-05-21T21:13:59.055Z,74.50
2018-05-21T21:16:25.277Z,75.10
2018-05-21T21:18:52.103Z,73.20
2018-05-21T21:21:18.855Z,73.80
2018-05-21T21:23:45.076Z,73.70
2018-05-21T21:26:11.296Z,73.80
2018-05-21T21:28:37.557Z,75.60
2018-05-21T21:31:03.800Z,80.20
2018-05-21T21:33:31.871Z,81.90
2018-05-21T21:35:57.983Z,81.90
2018-05-21T21:38:25.034Z,82.40
2018-05-21T21:40:54.465Z,82.60
2018-05-21T21:43:20.895Z,83.00
2018-05-21T21:45:47.831Z,80.40
2018-05-21T21:48:15.621Z,79.70
2018-05-21T21:50:42.114Z,79.60
2018-05-21T21:53:08.444Z,78.90
2018-05-21T21:55:35.034Z,79.90
2018-05-21T21:58:01.411Z,79.10
2018-05-21T22:00:28.224Z,78.30
2018-05-21T22:05:33.055Z,76.70
2018-05-21T22:07:59.277Z,75.90
2018-05-21T22:10:25.496Z,75.90
2018-05-21T22:12:51.855Z,74.80
2018-05-21T22:15:18.474Z,73.80
2018-05-21T22:20:23.448Z,74.30
2018-05-21T22:22:49.619Z,74.20
2018-05-21T22:25:15.793Z,74.10
2018-05-21T22:27:46.086Z,74.30
2018-05-21T22:30:12.917Z,73.80
2018-05-21T22:32:39.081Z,74.30
2018-05-21T22:35:05.382Z,75.40
2018-05-21T22:37:31.547Z,76.10
2018-05-21T22:39:58.409Z,76.10
2018-05-21T22:42:25.575Z,76.50
2018-05-21T22:44:52.873Z,76.90
2018-05-21T22:47:19.412Z,76.90
2018-05-21T22:49:45.628Z,77.50
2018-05-21T22:54:50.132Z,78.30
2018-05-21T22:57:16.624Z,78.40
2018-05-21T22:59:48.979Z,78.50
2018-05-21T23:02:15.163Z,79.00
2018-05-21T23:04:41.501Z,79.00
2018-05-21T23:07:08.551Z,78.40
2018-05-21T23:09:34.961Z,78.40
2018-05-21T23:12:01.690Z,77.70
2018-05-21T23:14:29.015Z,79.20
2018-05-21T23:16:55.196Z,79.20
2018-05-21T23:19:22.513Z,80.40
2018-05-21T23:21:48.950Z,80.30
2018-05-21T23:24:15.264Z,80.90
2018-05-21T23:26:46.453Z,81.10
2018-05-21T23:29:17.517Z,79.60
2018-05-21T23:31:45.909Z,79.90
2018-05-21T23:34:12.336Z,79.80
2018-05-21T23:36:38.604Z,81.90
2018-05-21T23:39:04.968Z,82.00
2018-05-21T23:41:31.999Z,81.40
2018-05-21T23:44:05.399Z,81.40
2018-05-21T23:46:32.362Z,81.40
2018-05-21T23:49:04.753Z,81.40
2018-05-21T23:51:30.955Z,80.70
2018-05-21T23:53:57.224Z,80.50
2018-05-21T23:56:23.554Z,81.30
2018-05-21T23:58:49.856Z,81.70
